AAL917 KCLT-KLGA
Flight info
| Callsign | AAL917 |
|---|---|
| Flight time | N/A |
| Altitude | 35000 |
| Route | BARMY5 RDU NOWAE Q87 HURTS PROUD2 |
| Aircraft | A320/M-SDE3FGHIRWY/LB1 |
Departure
| Time | 2026-05-06 17:34 |
|---|---|
| Airport | Charlotte Douglas International Airport (KCLT) |
Arrival
| Time | N/A |
|---|---|
| Airport | LaGuardia Airport (KLGA) |
| Time | Latitude | Longitude | Altitude | Speed | Heading |
|---|---|---|---|---|---|
| 2026-05-06 17:20 | 35.21933 | -80.94216 | 755 ft | 0 kts | 260° |
| 2026-05-06 17:26 | 35.21934 | -80.94213 | 755 ft | 2 kts | 260° |
| 2026-05-06 17:26 | 35.21934 | -80.94195 | 755 ft | 2 kts | 277° |
| 2026-05-06 17:27 | 35.21932 | -80.94177 | 755 ft | 2 kts | 290° |
| 2026-05-06 17:27 | 35.21925 | -80.94160 | 755 ft | 2 kts | 303° |
| 2026-05-06 17:27 | 35.21916 | -80.94146 | 755 ft | 2 kts | 316° |
| 2026-05-06 17:27 | 35.21905 | -80.94135 | 755 ft | 1 kts | 327° |
| 2026-05-06 17:28 | 35.21897 | -80.94128 | 755 ft | 2 kts | 309° |
| 2026-05-06 17:28 | 35.21891 | -80.94111 | 755 ft | 2 kts | 273° |
| 2026-05-06 17:28 | 35.21893 | -80.94093 | 755 ft | 2 kts | 242° |
| 2026-05-06 17:28 | 35.21903 | -80.94079 | 755 ft | 2 kts | 211° |
| 2026-05-06 17:29 | 35.21912 | -80.94074 | 755 ft | 0 kts | 192° |
| 2026-05-06 17:29 | 35.21919 | -80.94074 | 755 ft | 0 kts | 189° |
| 2026-05-06 17:30 | 35.21889 | -80.94067 | 755 ft | 10 kts | 155° |
| 2026-05-06 17:31 | 35.21820 | -80.93996 | 755 ft | 13 kts | 123° |
| 2026-05-06 17:31 | 35.21843 | -80.93893 | 755 ft | 14 kts | 50° |
| 2026-05-06 17:31 | 35.21911 | -80.93798 | 755 ft | 15 kts | 49° |
| 2026-05-06 17:31 | 35.21982 | -80.93713 | 755 ft | 12 kts | 19° |
| 2026-05-06 17:32 | 35.22087 | -80.93717 | 755 ft | 20 kts | 355° |
| 2026-05-06 17:32 | 35.22238 | -80.93730 | 755 ft | 21 kts | 356° |
| 2026-05-06 17:32 | 35.22386 | -80.93742 | 755 ft | 20 kts | 355° |
| 2026-05-06 17:32 | 35.22492 | -80.93732 | 755 ft | 13 kts | 46° |
| 2026-05-06 17:33 | 35.22487 | -80.93627 | 755 ft | 13 kts | 144° |
| 2026-05-06 17:33 | 35.22353 | -80.93607 | 755 ft | 42 kts | 176° |
| 2026-05-06 17:33 | 35.21828 | -80.93562 | 755 ft | 106 kts | 176° |
| 2026-05-06 17:33 | 35.20905 | -80.93481 | 757 ft | 158 kts | 176° |
| 2026-05-06 17:34 | 35.19769 | -80.93375 | 1167 ft | 167 kts | 179° |
| 2026-05-06 17:34 | 35.18617 | -80.93143 | 1817 ft | 170 kts | 167° |
| 2026-05-06 17:34 | 35.17707 | -80.92191 | 2439 ft | 188 kts | 119° |
| 2026-05-06 17:34 | 35.17602 | -80.90572 | 2845 ft | 207 kts | 80° |
| 2026-05-06 17:35 | 35.17983 | -80.88805 | 3164 ft | 223 kts | 78° |
| 2026-05-06 17:35 | 35.18378 | -80.86890 | 3408 ft | 245 kts | 79° |
| 2026-05-06 17:35 | 35.18778 | -80.84774 | 3789 ft | 263 kts | 79° |
| 2026-05-06 17:36 | 35.19594 | -80.80106 | 4701 ft | 296 kts | 79° |
| 2026-05-06 17:36 | 35.20013 | -80.77638 | 5413 ft | 302 kts | 78° |
| 2026-05-06 17:36 | 35.20436 | -80.75135 | 6181 ft | 306 kts | 78° |
| 2026-05-06 17:36 | 35.20868 | -80.72559 | 6904 ft | 311 kts | 77° |
| 2026-05-06 17:37 | 35.21302 | -80.69968 | 7640 ft | 316 kts | 77° |
| 2026-05-06 17:37 | 35.21743 | -80.67344 | 8370 ft | 322 kts | 77° |
| 2026-05-06 17:37 | 35.22192 | -80.64656 | 9068 ft | 327 kts | 76° |
| 2026-05-06 17:37 | 35.22648 | -80.61922 | 9802 ft | 331 kts | 76° |
| 2026-05-06 17:38 | 35.23111 | -80.59153 | 10406 ft | 340 kts | 76° |
| 2026-05-06 17:38 | 35.23597 | -80.56262 | 10766 ft | 357 kts | 76° |
| 2026-05-06 17:38 | 35.24101 | -80.53243 | 11223 ft | 369 kts | 76° |
| 2026-05-06 17:38 | 35.24611 | -80.50137 | 11823 ft | 375 kts | 76° |
| 2026-05-06 17:39 | 35.25132 | -80.46978 | 12436 ft | 380 kts | 77° |
| 2026-05-06 17:39 | 35.25588 | -80.43780 | 13021 ft | 386 kts | 79° |
| 2026-05-06 17:39 | 35.26013 | -80.40558 | 13594 ft | 392 kts | 79° |
| 2026-05-06 17:39 | 35.26435 | -80.37261 | 14195 ft | 395 kts | 79° |
| 2026-05-06 17:40 | 35.26867 | -80.33928 | 14827 ft | 398 kts | 79° |
| 2026-05-06 17:40 | 35.27301 | -80.30585 | 15409 ft | 400 kts | 79° |
| 2026-05-06 17:40 | 35.27741 | -80.27214 | 15997 ft | 403 kts | 79° |
| 2026-05-06 17:40 | 35.28182 | -80.23829 | 16549 ft | 405 kts | 78° |
| 2026-05-06 17:41 | 35.28622 | -80.20429 | 17106 ft | 408 kts | 78° |
| 2026-05-06 17:41 | 35.29072 | -80.17005 | 17633 ft | 411 kts | 78° |
| 2026-05-06 17:41 | 35.29519 | -80.13568 | 18191 ft | 412 kts | 78° |
| 2026-05-06 17:41 | 35.30077 | -80.10133 | 18732 ft | 413 kts | 73° |
| 2026-05-06 17:42 | 35.30860 | -80.06764 | 19240 ft | 413 kts | 68° |
| 2026-05-06 17:42 | 35.31814 | -80.03442 | 19779 ft | 414 kts | 66° |
| 2026-05-06 17:42 | 35.32802 | -80.00150 | 20289 ft | 416 kts | 66° |
| 2026-05-06 17:42 | 35.33798 | -79.96822 | 20797 ft | 418 kts | 66° |
| 2026-05-06 17:43 | 35.34788 | -79.93481 | 21305 ft | 419 kts | 67° |
| 2026-05-06 17:43 | 35.35779 | -79.90103 | 21767 ft | 422 kts | 68° |
| 2026-05-06 17:43 | 35.36767 | -79.86721 | 22212 ft | 424 kts | 68° |
| 2026-05-06 17:43 | 35.37746 | -79.83350 | 22682 ft | 425 kts | 68° |
| 2026-05-06 17:44 | 35.38746 | -79.79903 | 23135 ft | 428 kts | 68° |
| 2026-05-06 17:44 | 35.39742 | -79.76479 | 23548 ft | 430 kts | 68° |
| 2026-05-06 17:44 | 35.40742 | -79.73035 | 23939 ft | 434 kts | 68° |
| 2026-05-06 17:44 | 35.41751 | -79.69549 | 24350 ft | 437 kts | 68° |
| 2026-05-06 17:45 | 35.42765 | -79.66048 | 24757 ft | 439 kts | 68° |
| 2026-05-06 17:45 | 35.43790 | -79.62511 | 25119 ft | 442 kts | 68° |
| 2026-05-06 17:45 | 35.44822 | -79.58939 | 25496 ft | 445 kts | 68° |
| 2026-05-06 17:45 | 35.45845 | -79.55393 | 25893 ft | 447 kts | 68° |
| 2026-05-06 17:46 | 35.46894 | -79.51752 | 26261 ft | 450 kts | 68° |
| 2026-05-06 17:46 | 35.47935 | -79.48132 | 26606 ft | 453 kts | 68° |